Aviation Digital Data Service (ADDS)

Output produced by METARs form (1524 UTC 23 January 2019)
found at http://www.aviationweather.gov/metar/data/
 
Forecast for: FABL (BLOEMFONTEIN/HER, ZA)
Text: TAF FABL 231000Z 2312/2412 26012KT CAVOK TX38/2313Z TN18/2403Z
Forecast period: 1200 to 2100 UTC 23 January 2019
Forecast type: FROM: standard forecast or significant change
Winds: from the W (260 degrees) at 14 MPH (12 knots; 6.2 m/s)
Visibility: 6 or more miles 10+ km)
Ceiling: unknown
Clouds: missing
Weather: no significant weather forecast for this period
Text: BECMG 2321/2323 18005KT
Forecast period: 2100 UTC 23 January 2019 to 0800 UTC 24 January 2019
Forecast type: BECOMING: Conditions expected to become as follows by 2300 UTC 23 January 2019
Winds: from the S (180 degrees) at 6 MPH (5 knots; 2.6 m/s)
Visibility: 6 or more miles 10+ km)
Ceiling: unknown
Clouds: missing
Weather: no significant weather forecast for this period
Text: BECMG 2408/2410 32010KT
Forecast period: 0800 to 1200 UTC 24 January 2019
Forecast type: BECOMING: Conditions expected to become as follows by 1000 UTC 24 January 2019
Winds: from the NW (320 degrees) at 12 MPH (10 knots; 5.1 m/s)
Visibility: 6 or more miles 10+ km)
Ceiling: unknown
Clouds: missing
Weather: no significant weather forecast for this period